sensor_id;sensor_type;location;lat;lon;timestamp;P1;durP1;ratioP1;P2;durP2;ratioP2
27161;SDS011;54464;50.558;9.704;2023-08-20T00:02:24;8.30;;;6.45;;
27161;SDS011;54464;50.558;9.704;2023-08-20T00:04:50;7.07;;;6.25;;
27161;SDS011;54464;50.558;9.704;2023-08-20T00:07:17;7.22;;;6.53;;
27161;SDS011;54464;50.558;9.704;2023-08-20T00:09:43;8.77;;;6.13;;
27161;SDS011;54464;50.558;9.704;2023-08-20T00:12:09;8.70;;;6.53;;
27161;SDS011;54464;50.558;9.704;2023-08-20T00:17:21;7.18;;;5.88;;
27161;SDS011;54464;50.558;9.704;2023-08-20T00:19:49;11.07;;;6.10;;
27161;SDS011;54464;50.558;9.704;2023-08-20T00:22:15;6.13;;;5.53;;
27161;SDS011;54464;50.558;9.704;2023-08-20T00:24:42;8.05;;;5.85;;
27161;SDS011;54464;50.558;9.704;2023-08-20T00:27:07;6.53;;;5.72;;
27161;SDS011;54464;50.558;9.704;2023-08-20T00:29:33;6.53;;;5.78;;
27161;SDS011;54464;50.558;9.704;2023-08-20T00:31:59;7.07;;;5.55;;
27161;SDS011;54464;50.558;9.704;2023-08-20T00:34:24;6.47;;;5.80;;
27161;SDS011;54464;50.558;9.704;2023-08-20T00:36:50;5.50;;;4.93;;
27161;SDS011;54464;50.558;9.704;2023-08-20T00:39:15;7.45;;;5.55;;
27161;SDS011;54464;50.558;9.704;2023-08-20T00:41:41;6.63;;;5.07;;
27161;SDS011;54464;50.558;9.704;2023-08-20T00:44:06;6.15;;;5.38;;
27161;SDS011;54464;50.558;9.704;2023-08-20T00:46:32;7.63;;;5.20;;
27161;SDS011;54464;50.558;9.704;2023-08-20T00:48:58;8.32;;;5.47;;
27161;SDS011;54464;50.558;9.704;2023-08-20T00:51:23;7.00;;;5.78;;
27161;SDS011;54464;50.558;9.704;2023-08-20T00:53:50;5.80;;;5.30;;
27161;SDS011;54464;50.558;9.704;2023-08-20T00:56:16;6.40;;;5.18;;
27161;SDS011;54464;50.558;9.704;2023-08-20T00:58:42;6.20;;;5.63;;
27161;SDS011;54464;50.558;9.704;2023-08-20T01:01:08;8.23;;;6.20;;
27161;SDS011;54464;50.558;9.704;2023-08-20T01:03:34;7.32;;;5.72;;
27161;SDS011;54464;50.558;9.704;2023-08-20T01:06:09;6.38;;;5.63;;
27161;SDS011;54464;50.558;9.704;2023-08-20T01:08:43;5.90;;;5.30;;
27161;SDS011;54464;50.558;9.704;2023-08-20T01:11:17;6.65;;;5.97;;
27161;SDS011;54464;50.558;9.704;2023-08-20T01:13:49;7.47;;;5.63;;
27161;SDS011;54464;50.558;9.704;2023-08-20T01:16:15;6.25;;;5.40;;
27161;SDS011;54464;50.558;9.704;2023-08-20T01:18:40;6.10;;;5.53;;
27161;SDS011;54464;50.558;9.704;2023-08-20T01:21:11;7.07;;;5.70;;
27161;SDS011;54464;50.558;9.704;2023-08-20T01:24:10;6.50;;;5.90;;
27161;SDS011;54464;50.558;9.704;2023-08-20T01:30:17;7.22;;;6.00;;
27161;SDS011;54464;50.558;9.704;2023-08-20T01:32:44;7.43;;;6.03;;
27161;SDS011;54464;50.558;9.704;2023-08-20T01:35:11;6.78;;;6.18;;
27161;SDS011;54464;50.558;9.704;2023-08-20T01:37:38;8.35;;;6.50;;
27161;SDS011;54464;50.558;9.704;2023-08-20T01:40:04;6.30;;;5.70;;
27161;SDS011;54464;50.558;9.704;2023-08-20T01:42:35;7.18;;;6.35;;
27161;SDS011;54464;50.558;9.704;2023-08-20T01:45:04;8.88;;;6.60;;
27161;SDS011;54464;50.558;9.704;2023-08-20T01:47:31;6.93;;;6.22;;
27161;SDS011;54464;50.558;9.704;2023-08-20T01:49:59;10.55;;;7.10;;
27161;SDS011;54464;50.558;9.704;2023-08-20T01:52:25;7.43;;;6.68;;
27161;SDS011;54464;50.558;9.704;2023-08-20T01:54:51;9.20;;;6.75;;
27161;SDS011;54464;50.558;9.704;2023-08-20T01:57:17;8.10;;;7.25;;
27161;SDS011;54464;50.558;9.704;2023-08-20T01:59:43;8.77;;;7.45;;
27161;SDS011;54464;50.558;9.704;2023-08-20T02:02:08;7.90;;;6.90;;
27161;SDS011;54464;50.558;9.704;2023-08-20T02:04:34;8.63;;;7.67;;
27161;SDS011;54464;50.558;9.704;2023-08-20T02:07:00;9.40;;;7.57;;
27161;SDS011;54464;50.558;9.704;2023-08-20T02:09:25;8.37;;;7.57;;
27161;SDS011;54464;50.558;9.704;2023-08-20T02:11:51;8.27;;;7.17;;
27161;SDS011;54464;50.558;9.704;2023-08-20T02:14:17;8.80;;;7.17;;
27161;SDS011;54464;50.558;9.704;2023-08-20T02:16:42;7.57;;;6.78;;
27161;SDS011;54464;50.558;9.704;2023-08-20T02:19:08;7.53;;;6.73;;
27161;SDS011;54464;50.558;9.704;2023-08-20T02:21:34;8.27;;;6.85;;
27161;SDS011;54464;50.558;9.704;2023-08-20T02:24:01;8.93;;;6.93;;
27161;SDS011;54464;50.558;9.704;2023-08-20T02:26:26;7.95;;;7.25;;
27161;SDS011;54464;50.558;9.704;2023-08-20T02:28:52;7.77;;;7.00;;
27161;SDS011;54464;50.558;9.704;2023-08-20T02:31:18;6.90;;;6.20;;
27161;SDS011;54464;50.558;9.704;2023-08-20T02:33:43;7.30;;;6.47;;
27161;SDS011;54464;50.558;9.704;2023-08-20T02:36:09;7.28;;;6.57;;
27161;SDS011;54464;50.558;9.704;2023-08-20T02:38:34;8.30;;;7.32;;
27161;SDS011;54464;50.558;9.704;2023-08-20T02:41:00;7.72;;;7.03;;
27161;SDS011;54464;50.558;9.704;2023-08-20T02:43:29;8.38;;;7.55;;
27161;SDS011;54464;50.558;9.704;2023-08-20T02:45:55;10.73;;;6.82;;
27161;SDS011;54464;50.558;9.704;2023-08-20T02:48:21;7.63;;;6.57;;
27161;SDS011;54464;50.558;9.704;2023-08-20T02:50:52;8.43;;;6.88;;
27161;SDS011;54464;50.558;9.704;2023-08-20T02:53:19;8.80;;;6.57;;
27161;SDS011;54464;50.558;9.704;2023-08-20T02:55:45;7.00;;;6.40;;
27161;SDS011;54464;50.558;9.704;2023-08-20T02:58:10;7.68;;;6.95;;
27161;SDS011;54464;50.558;9.704;2023-08-20T03:00:36;8.25;;;7.15;;
27161;SDS011;54464;50.558;9.704;2023-08-20T03:03:01;8.27;;;7.22;;
27161;SDS011;54464;50.558;9.704;2023-08-20T03:05:32;7.68;;;6.57;;
27161;SDS011;54464;50.558;9.704;2023-08-20T03:07:58;9.23;;;6.05;;
27161;SDS011;54464;50.558;9.704;2023-08-20T03:10:24;7.25;;;6.57;;
27161;SDS011;54464;50.558;9.704;2023-08-20T03:12:49;6.70;;;6.10;;
27161;SDS011;54464;50.558;9.704;2023-08-20T03:15:15;8.60;;;6.80;;
27161;SDS011;54464;50.558;9.704;2023-08-20T03:17:40;8.98;;;6.85;;
27161;SDS011;54464;50.558;9.704;2023-08-20T03:20:06;7.70;;;7.00;;
27161;SDS011;54464;50.558;9.704;2023-08-20T03:22:32;8.07;;;7.28;;
27161;SDS011;54464;50.558;9.704;2023-08-20T03:24:58;7.20;;;6.50;;
27161;SDS011;54464;50.558;9.704;2023-08-20T03:27:24;8.45;;;6.82;;
27161;SDS011;54464;50.558;9.704;2023-08-20T03:29:49;7.32;;;6.47;;
27161;SDS011;54464;50.558;9.704;2023-08-20T03:32:16;8.40;;;6.90;;
27161;SDS011;54464;50.558;9.704;2023-08-20T03:34:42;8.77;;;7.35;;
27161;SDS011;54464;50.558;9.704;2023-08-20T03:37:08;8.97;;;6.67;;
27161;SDS011;54464;50.558;9.704;2023-08-20T03:39:33;7.95;;;7.15;;
27161;SDS011;54464;50.558;9.704;2023-08-20T03:41:59;8.67;;;7.67;;
27161;SDS011;54464;50.558;9.704;2023-08-20T03:44:25;10.80;;;7.27;;
27161;SDS011;54464;50.558;9.704;2023-08-20T03:46:50;14.10;;;7.40;;
27161;SDS011;54464;50.558;9.704;2023-08-20T03:49:16;9.00;;;7.47;;
27161;SDS011;54464;50.558;9.704;2023-08-20T03:51:41;7.40;;;6.60;;
27161;SDS011;54464;50.558;9.704;2023-08-20T03:54:07;7.60;;;6.70;;
27161;SDS011;54464;50.558;9.704;2023-08-20T03:56:33;10.80;;;7.20;;
27161;SDS011;54464;50.558;9.704;2023-08-20T03:58:59;9.52;;;7.28;;
27161;SDS011;54464;50.558;9.704;2023-08-20T04:01:28;8.27;;;6.80;;
27161;SDS011;54464;50.558;9.704;2023-08-20T04:03:53;7.73;;;6.80;;
27161;SDS011;54464;50.558;9.704;2023-08-20T04:06:19;8.40;;;6.82;;
27161;SDS011;54464;50.558;9.704;2023-08-20T04:08:44;7.63;;;6.60;;
27161;SDS011;54464;50.558;9.704;2023-08-20T04:11:10;8.17;;;7.37;;
27161;SDS011;54464;50.558;9.704;2023-08-20T04:13:36;9.27;;;7.40;;
27161;SDS011;54464;50.558;9.704;2023-08-20T04:16:02;8.10;;;7.40;;
27161;SDS011;54464;50.558;9.704;2023-08-20T04:18:27;9.53;;;7.00;;
27161;SDS011;54464;50.558;9.704;2023-08-20T04:20:53;8.70;;;7.80;;
27161;SDS011;54464;50.558;9.704;2023-08-20T04:23:20;9.10;;;7.57;;
27161;SDS011;54464;50.558;9.704;2023-08-20T04:25:46;10.37;;;7.10;;
27161;SDS011;54464;50.558;9.704;2023-08-20T04:28:12;9.00;;;8.10;;
27161;SDS011;54464;50.558;9.704;2023-08-20T04:30:37;9.73;;;7.90;;
27161;SDS011;54464;50.558;9.704;2023-08-20T04:33:03;9.30;;;8.43;;
27161;SDS011;54464;50.558;9.704;2023-08-20T04:35:29;10.10;;;8.83;;
27161;SDS011;54464;50.558;9.704;2023-08-20T04:37:55;9.73;;;8.73;;
27161;SDS011;54464;50.558;9.704;2023-08-20T04:40:20;9.90;;;8.87;;
27161;SDS011;54464;50.558;9.704;2023-08-20T04:42:46;9.40;;;8.50;;
27161;SDS011;54464;50.558;9.704;2023-08-20T04:45:11;9.33;;;8.43;;
27161;SDS011;54464;50.558;9.704;2023-08-20T04:47:37;10.27;;;8.90;;
27161;SDS011;54464;50.558;9.704;2023-08-20T04:50:03;9.30;;;8.47;;
27161;SDS011;54464;50.558;9.704;2023-08-20T04:52:31;9.90;;;8.43;;
27161;SDS011;54464;50.558;9.704;2023-08-20T04:54:58;9.47;;;7.77;;
27161;SDS011;54464;50.558;9.704;2023-08-20T04:57:23;9.00;;;8.10;;
27161;SDS011;54464;50.558;9.704;2023-08-20T04:59:49;8.77;;;7.97;;
27161;SDS011;54464;50.558;9.704;2023-08-20T05:02:14;10.47;;;8.23;;
27161;SDS011;54464;50.558;9.704;2023-08-20T05:04:40;9.87;;;8.07;;
27161;SDS011;54464;50.558;9.704;2023-08-20T05:07:06;9.00;;;8.10;;
27161;SDS011;54464;50.558;9.704;2023-08-20T05:09:32;9.67;;;8.50;;
27161;SDS011;54464;50.558;9.704;2023-08-20T05:11:58;9.27;;;8.33;;
27161;SDS011;54464;50.558;9.704;2023-08-20T05:14:24;10.50;;;8.53;;
27161;SDS011;54464;50.558;9.704;2023-08-20T05:16:49;9.77;;;8.77;;
27161;SDS011;54464;50.558;9.704;2023-08-20T05:19:15;10.07;;;8.37;;
27161;SDS011;54464;50.558;9.704;2023-08-20T05:21:40;9.27;;;8.30;;
27161;SDS011;54464;50.558;9.704;2023-08-20T05:24:06;11.37;;;8.90;;
27161;SDS011;54464;50.558;9.704;2023-08-20T05:26:31;9.73;;;8.03;;
27161;SDS011;54464;50.558;9.704;2023-08-20T05:28:57;10.27;;;9.00;;
27161;SDS011;54464;50.558;9.704;2023-08-20T05:31:23;11.83;;;8.87;;
27161;SDS011;54464;50.558;9.704;2023-08-20T05:33:48;10.70;;;9.57;;
27161;SDS011;54464;50.558;9.704;2023-08-20T05:36:14;11.13;;;8.77;;
27161;SDS011;54464;50.558;9.704;2023-08-20T05:38:40;11.07;;;9.83;;
27161;SDS011;54464;50.558;9.704;2023-08-20T05:41:07;11.13;;;8.53;;
27161;SDS011;54464;50.558;9.704;2023-08-20T05:43:33;11.27;;;8.80;;
27161;SDS011;54464;50.558;9.704;2023-08-20T05:46:01;8.97;;;8.17;;
27161;SDS011;54464;50.558;9.704;2023-08-20T05:48:27;9.10;;;8.20;;
27161;SDS011;54464;50.558;9.704;2023-08-20T05:50:52;8.83;;;7.93;;
27161;SDS011;54464;50.558;9.704;2023-08-20T05:53:18;8.57;;;7.77;;
27161;SDS011;54464;50.558;9.704;2023-08-20T05:55:43;9.27;;;7.97;;
27161;SDS011;54464;50.558;9.704;2023-08-20T05:58:09;9.27;;;8.10;;
27161;SDS011;54464;50.558;9.704;2023-08-20T06:00:34;9.80;;;8.47;;
27161;SDS011;54464;50.558;9.704;2023-08-20T06:03:00;10.20;;;8.60;;
27161;SDS011;54464;50.558;9.704;2023-08-20T06:05:26;9.00;;;8.17;;
27161;SDS011;54464;50.558;9.704;2023-08-20T06:07:51;9.60;;;8.60;;
27161;SDS011;54464;50.558;9.704;2023-08-20T06:10:17;10.93;;;9.03;;
27161;SDS011;54464;50.558;9.704;2023-08-20T06:12:42;10.27;;;9.23;;
27161;SDS011;54464;50.558;9.704;2023-08-20T06:15:08;10.77;;;9.77;;
27161;SDS011;54464;50.558;9.704;2023-08-20T06:17:33;9.87;;;8.93;;
27161;SDS011;54464;50.558;9.704;2023-08-20T06:19:59;10.70;;;9.63;;
27161;SDS011;54464;50.558;9.704;2023-08-20T06:22:25;11.53;;;8.87;;
27161;SDS011;54464;50.558;9.704;2023-08-20T06:24:50;9.87;;;8.87;;
27161;SDS011;54464;50.558;9.704;2023-08-20T06:27:16;8.70;;;7.80;;
27161;SDS011;54464;50.558;9.704;2023-08-20T06:29:41;11.30;;;8.70;;
27161;SDS011;54464;50.558;9.704;2023-08-20T06:32:08;10.00;;;9.03;;
27161;SDS011;54464;50.558;9.704;2023-08-20T06:34:33;9.93;;;8.20;;
27161;SDS011;54464;50.558;9.704;2023-08-20T06:37:00;9.77;;;8.07;;
27161;SDS011;54464;50.558;9.704;2023-08-20T06:39:25;9.60;;;8.60;;
27161;SDS011;54464;50.558;9.704;2023-08-20T06:41:51;9.90;;;9.00;;
27161;SDS011;54464;50.558;9.704;2023-08-20T06:44:16;12.53;;;9.47;;
27161;SDS011;54464;50.558;9.704;2023-08-20T06:46:42;10.97;;;9.00;;
27161;SDS011;54464;50.558;9.704;2023-08-20T06:49:07;9.83;;;8.93;;
27161;SDS011;54464;50.558;9.704;2023-08-20T06:51:33;12.03;;;10.33;;
27161;SDS011;54464;50.558;9.704;2023-08-20T06:53:58;11.93;;;10.07;;
27161;SDS011;54464;50.558;9.704;2023-08-20T06:56:24;11.15;;;10.02;;
27161;SDS011;54464;50.558;9.704;2023-08-20T06:58:50;12.07;;;10.37;;
27161;SDS011;54464;50.558;9.704;2023-08-20T07:01:15;10.73;;;9.63;;
27161;SDS011;54464;50.558;9.704;2023-08-20T07:03:42;10.18;;;9.18;;
27161;SDS011;54464;50.558;9.704;2023-08-20T07:06:09;10.70;;;9.63;;
27161;SDS011;54464;50.558;9.704;2023-08-20T07:08:36;13.20;;;10.27;;
27161;SDS011;54464;50.558;9.704;2023-08-20T07:11:04;11.65;;;10.20;;
27161;SDS011;54464;50.558;9.704;2023-08-20T07:13:30;12.02;;;10.27;;
27161;SDS011;54464;50.558;9.704;2023-08-20T07:15:56;12.18;;;10.30;;
27161;SDS011;54464;50.558;9.704;2023-08-20T07:18:21;12.20;;;10.57;;
27161;SDS011;54464;50.558;9.704;2023-08-20T07:20:47;11.10;;;9.55;;
27161;SDS011;54464;50.558;9.704;2023-08-20T07:23:12;11.55;;;10.35;;
27161;SDS011;54464;50.558;9.704;2023-08-20T07:25:39;10.95;;;9.85;;
27161;SDS011;54464;50.558;9.704;2023-08-20T07:28:06;11.07;;;9.98;;
27161;SDS011;54464;50.558;9.704;2023-08-20T07:30:33;12.35;;;11.05;;
27161;SDS011;54464;50.558;9.704;2023-08-20T07:32:59;14.18;;;11.25;;
27161;SDS011;54464;50.558;9.704;2023-08-20T07:35:24;13.27;;;11.43;;
27161;SDS011;54464;50.558;9.704;2023-08-20T07:37:50;13.10;;;11.63;;
27161;SDS011;54464;50.558;9.704;2023-08-20T07:40:16;15.88;;;12.20;;
27161;SDS011;54464;50.558;9.704;2023-08-20T07:42:42;14.63;;;13.00;;
27161;SDS011;54464;50.558;9.704;2023-08-20T07:45:08;13.48;;;12.07;;
27161;SDS011;54464;50.558;9.704;2023-08-20T07:47:37;14.27;;;12.82;;
27161;SDS011;54464;50.558;9.704;2023-08-20T07:50:03;14.23;;;12.30;;
27161;SDS011;54464;50.558;9.704;2023-08-20T07:52:30;15.27;;;13.68;;
27161;SDS011;54464;50.558;9.704;2023-08-20T07:54:55;12.68;;;11.30;;
27161;SDS011;54464;50.558;9.704;2023-08-20T07:57:21;14.68;;;13.20;;
27161;SDS011;54464;50.558;9.704;2023-08-20T07:59:48;16.10;;;13.68;;
27161;SDS011;54464;50.558;9.704;2023-08-20T08:02:17;13.25;;;11.82;;
27161;SDS011;54464;50.558;9.704;2023-08-20T08:04:43;13.90;;;12.35;;
27161;SDS011;54464;50.558;9.704;2023-08-20T08:07:12;13.93;;;12.52;;
27161;SDS011;54464;50.558;9.704;2023-08-20T08:09:37;13.10;;;11.50;;
27161;SDS011;54464;50.558;9.704;2023-08-20T08:12:03;13.20;;;11.80;;
27161;SDS011;54464;50.558;9.704;2023-08-20T08:14:29;12.90;;;11.52;;
27161;SDS011;54464;50.558;9.704;2023-08-20T08:16:56;13.90;;;12.50;;
27161;SDS011;54464;50.558;9.704;2023-08-20T08:19:22;14.20;;;11.95;;
27161;SDS011;54464;50.558;9.704;2023-08-20T08:21:47;14.90;;;13.02;;
27161;SDS011;54464;50.558;9.704;2023-08-20T08:24:14;12.60;;;11.25;;
27161;SDS011;54464;50.558;9.704;2023-08-20T08:26:40;13.05;;;11.18;;
27161;SDS011;54464;50.558;9.704;2023-08-20T08:29:06;12.30;;;11.05;;
27161;SDS011;54464;50.558;9.704;2023-08-20T08:31:33;12.27;;;10.95;;
27161;SDS011;54464;50.558;9.704;2023-08-20T08:33:59;14.25;;;11.25;;
27161;SDS011;54464;50.558;9.704;2023-08-20T08:36:25;11.95;;;10.50;;
27161;SDS011;54464;50.558;9.704;2023-08-20T08:38:51;12.48;;;11.18;;
27161;SDS011;54464;50.558;9.704;2023-08-20T08:41:16;12.85;;;10.60;;
27161;SDS011;54464;50.558;9.704;2023-08-20T08:43:43;11.98;;;10.77;;
27161;SDS011;54464;50.558;9.704;2023-08-20T08:46:14;11.82;;;10.63;;
27161;SDS011;54464;50.558;9.704;2023-08-20T08:48:40;12.02;;;10.82;;
27161;SDS011;54464;50.558;9.704;2023-08-20T08:51:07;13.15;;;10.75;;
27161;SDS011;54464;50.558;9.704;2023-08-20T08:53:33;12.02;;;10.88;;
27161;SDS011;54464;50.558;9.704;2023-08-20T08:56:00;11.90;;;10.60;;
27161;SDS011;54464;50.558;9.704;2023-08-20T08:58:25;12.63;;;11.18;;
27161;SDS011;54464;50.558;9.704;2023-08-20T09:00:51;11.25;;;10.18;;
27161;SDS011;54464;50.558;9.704;2023-08-20T09:03:17;11.80;;;10.60;;
27161;SDS011;54464;50.558;9.704;2023-08-20T09:08:22;11.88;;;10.20;;
27161;SDS011;54464;50.558;9.704;2023-08-20T09:13:39;11.05;;;9.88;;
27161;SDS011;54464;50.558;9.704;2023-08-20T09:16:07;11.45;;;10.40;;
27161;SDS011;54464;50.558;9.704;2023-08-20T09:18:43;13.77;;;9.95;;
27161;SDS011;54464;50.558;9.704;2023-08-20T09:21:13;10.80;;;9.68;;
27161;SDS011;54464;50.558;9.704;2023-08-20T09:23:39;11.05;;;9.45;;
27161;SDS011;54464;50.558;9.704;2023-08-20T09:26:05;10.93;;;9.82;;
27161;SDS011;54464;50.558;9.704;2023-08-20T09:28:54;11.35;;;10.20;;
27161;SDS011;54464;50.558;9.704;2023-08-20T09:31:19;12.52;;;10.85;;
27161;SDS011;54464;50.558;9.704;2023-08-20T09:33:51;10.38;;;9.25;;
27161;SDS011;54464;50.558;9.704;2023-08-20T09:36:30;10.80;;;9.75;;
27161;SDS011;54464;50.558;9.704;2023-08-20T09:39:00;11.07;;;9.18;;
27161;SDS011;54464;50.558;9.704;2023-08-20T09:41:26;10.43;;;9.32;;
27161;SDS011;54464;50.558;9.704;2023-08-20T09:43:55;11.45;;;9.43;;
27161;SDS011;54464;50.558;9.704;2023-08-20T09:46:23;11.00;;;9.35;;
27161;SDS011;54464;50.558;9.704;2023-08-20T09:48:50;11.23;;;9.50;;
27161;SDS011;54464;50.558;9.704;2023-08-20T09:51:23;10.40;;;8.95;;
27161;SDS011;54464;50.558;9.704;2023-08-20T09:54:13;9.77;;;8.60;;
27161;SDS011;54464;50.558;9.704;2023-08-20T09:56:50;9.20;;;8.27;;
27161;SDS011;54464;50.558;9.704;2023-08-20T10:02:26;8.57;;;7.85;;
27161;SDS011;54464;50.558;9.704;2023-08-20T10:04:51;9.23;;;8.25;;
27161;SDS011;54464;50.558;9.704;2023-08-20T10:07:30;9.10;;;8.05;;
27161;SDS011;54464;50.558;9.704;2023-08-20T10:10:01;9.18;;;8.40;;
27161;SDS011;54464;50.558;9.704;2023-08-20T10:12:29;9.10;;;8.27;;
27161;SDS011;54464;50.558;9.704;2023-08-20T10:14:56;7.97;;;7.20;;
27161;SDS011;54464;50.558;9.704;2023-08-20T10:17:23;7.90;;;7.13;;
27161;SDS011;54464;50.558;9.704;2023-08-20T10:19:49;8.32;;;7.63;;
27161;SDS011;54464;50.558;9.704;2023-08-20T10:22:19;7.88;;;7.05;;
27161;SDS011;54464;50.558;9.704;2023-08-20T10:24:56;8.77;;;7.30;;
27161;SDS011;54464;50.558;9.704;2023-08-20T10:27:34;8.27;;;7.47;;
27161;SDS011;54464;50.558;9.704;2023-08-20T10:30:09;7.90;;;7.20;;
27161;SDS011;54464;50.558;9.704;2023-08-20T10:32:50;7.60;;;6.90;;
27161;SDS011;54464;50.558;9.704;2023-08-20T10:36:03;7.63;;;6.82;;
27161;SDS011;54464;50.558;9.704;2023-08-20T10:38:16;8.90;;;7.68;;
27161;SDS011;54464;50.558;9.704;2023-08-20T10:40:57;8.68;;;7.78;;
27161;SDS011;54464;50.558;9.704;2023-08-20T10:43:25;8.15;;;7.32;;
27161;SDS011;54464;50.558;9.704;2023-08-20T10:46:29;7.93;;;7.22;;
27161;SDS011;54464;50.558;9.704;2023-08-20T10:48:55;7.47;;;6.78;;
27161;SDS011;54464;50.558;9.704;2023-08-20T10:51:29;8.32;;;7.35;;
27161;SDS011;54464;50.558;9.704;2023-08-20T10:54:02;7.90;;;7.20;;
27161;SDS011;54464;50.558;9.704;2023-08-20T10:56:42;8.60;;;7.72;;
27161;SDS011;54464;50.558;9.704;2023-08-20T10:59:19;8.23;;;7.15;;
27161;SDS011;54464;50.558;9.704;2023-08-20T11:01:47;7.85;;;6.90;;
27161;SDS011;54464;50.558;9.704;2023-08-20T11:04:18;9.13;;;7.53;;
27161;SDS011;54464;50.558;9.704;2023-08-20T11:06:46;9.10;;;6.75;;
27161;SDS011;54464;50.558;9.704;2023-08-20T11:09:14;7.30;;;6.70;;
27161;SDS011;54464;50.558;9.704;2023-08-20T11:11:40;7.30;;;6.70;;
27161;SDS011;54464;50.558;9.704;2023-08-20T11:14:06;7.45;;;6.78;;
27161;SDS011;54464;50.558;9.704;2023-08-20T11:16:36;7.85;;;6.85;;
27161;SDS011;54464;50.558;9.704;2023-08-20T11:19:03;7.20;;;6.50;;
27161;SDS011;54464;50.558;9.704;2023-08-20T11:22:06;7.78;;;6.53;;
27161;SDS011;54464;50.558;9.704;2023-08-20T11:24:28;7.00;;;6.30;;
27161;SDS011;54464;50.558;9.704;2023-08-20T11:26:54;9.82;;;7.20;;
27161;SDS011;54464;50.558;9.704;2023-08-20T11:29:20;7.22;;;6.63;;
27161;SDS011;54464;50.558;9.704;2023-08-20T11:31:46;8.15;;;7.00;;
27161;SDS011;54464;50.558;9.704;2023-08-20T11:34:12;7.40;;;6.53;;
27161;SDS011;54464;50.558;9.704;2023-08-20T11:36:41;7.15;;;6.45;;
27161;SDS011;54464;50.558;9.704;2023-08-20T11:39:07;7.60;;;6.90;;
27161;SDS011;54464;50.558;9.704;2023-08-20T11:41:36;7.15;;;6.55;;
27161;SDS011;54464;50.558;9.704;2023-08-20T11:44:02;6.90;;;6.20;;
27161;SDS011;54464;50.558;9.704;2023-08-20T11:46:28;6.70;;;6.10;;
27161;SDS011;54464;50.558;9.704;2023-08-20T11:49:04;6.63;;;6.10;;
27161;SDS011;54464;50.558;9.704;2023-08-20T11:51:37;8.05;;;7.20;;
27161;SDS011;54464;50.558;9.704;2023-08-20T11:54:08;6.50;;;5.78;;
27161;SDS011;54464;50.558;9.704;2023-08-20T11:56:35;7.60;;;6.32;;
27161;SDS011;54464;50.558;9.704;2023-08-20T11:59:03;7.60;;;6.80;;
27161;SDS011;54464;50.558;9.704;2023-08-20T12:01:29;7.63;;;6.95;;
27161;SDS011;54464;50.558;9.704;2023-08-20T12:04:04;7.80;;;7.03;;
27161;SDS011;54464;50.558;9.704;2023-08-20T12:06:33;7.53;;;6.82;;
27161;SDS011;54464;50.558;9.704;2023-08-20T12:09:00;8.30;;;7.13;;
27161;SDS011;54464;50.558;9.704;2023-08-20T12:11:27;7.82;;;6.63;;
27161;SDS011;54464;50.558;9.704;2023-08-20T12:13:53;7.18;;;6.57;;
27161;SDS011;54464;50.558;9.704;2023-08-20T12:16:23;7.53;;;6.50;;
27161;SDS011;54464;50.558;9.704;2023-08-20T12:18:52;7.57;;;6.78;;
27161;SDS011;54464;50.558;9.704;2023-08-20T12:21:18;6.72;;;6.13;;
27161;SDS011;54464;50.558;9.704;2023-08-20T12:23:43;7.22;;;6.53;;
27161;SDS011;54464;50.558;9.704;2023-08-20T12:26:09;7.80;;;7.00;;
27161;SDS011;54464;50.558;9.704;2023-08-20T12:28:35;7.03;;;6.32;;
27161;SDS011;54464;50.558;9.704;2023-08-20T12:31:00;6.57;;;5.97;;
27161;SDS011;54464;50.558;9.704;2023-08-20T12:33:26;6.05;;;5.53;;
27161;SDS011;54464;50.558;9.704;2023-08-20T12:35:55;6.32;;;5.72;;
27161;SDS011;54464;50.558;9.704;2023-08-20T12:38:21;6.70;;;6.10;;
27161;SDS011;54464;50.558;9.704;2023-08-20T12:40:47;5.95;;;5.43;;
27161;SDS011;54464;50.558;9.704;2023-08-20T12:43:13;7.90;;;6.00;;
27161;SDS011;54464;50.558;9.704;2023-08-20T12:45:50;8.98;;;6.40;;
27161;SDS011;54464;50.558;9.704;2023-08-20T12:48:15;5.55;;;5.15;;
27161;SDS011;54464;50.558;9.704;2023-08-20T12:50:41;6.35;;;5.15;;
27161;SDS011;54464;50.558;9.704;2023-08-20T12:53:10;6.30;;;5.80;;
27161;SDS011;54464;50.558;9.704;2023-08-20T12:55:35;5.80;;;5.30;;
27161;SDS011;54464;50.558;9.704;2023-08-20T12:58:01;5.35;;;4.85;;
27161;SDS011;54464;50.558;9.704;2023-08-20T13:00:27;5.50;;;5.00;;
27161;SDS011;54464;50.558;9.704;2023-08-20T13:02:58;5.65;;;5.13;;
27161;SDS011;54464;50.558;9.704;2023-08-20T13:05:32;5.70;;;4.68;;
27161;SDS011;54464;50.558;9.704;2023-08-20T13:07:58;5.28;;;4.53;;
27161;SDS011;54464;50.558;9.704;2023-08-20T13:10:24;4.90;;;4.50;;
27161;SDS011;54464;50.558;9.704;2023-08-20T13:12:51;5.13;;;4.60;;
27161;SDS011;54464;50.558;9.704;2023-08-20T13:15:19;4.93;;;4.43;;
27161;SDS011;54464;50.558;9.704;2023-08-20T13:17:46;6.18;;;4.57;;
27161;SDS011;54464;50.558;9.704;2023-08-20T13:20:16;5.20;;;4.70;;
27161;SDS011;54464;50.558;9.704;2023-08-20T13:22:49;4.97;;;4.47;;
27161;SDS011;54464;50.558;9.704;2023-08-20T13:25:23;7.28;;;5.00;;
27161;SDS011;54464;50.558;9.704;2023-08-20T13:27:51;5.03;;;4.50;;
27161;SDS011;54464;50.558;9.704;2023-08-20T13:30:17;5.00;;;4.50;;
27161;SDS011;54464;50.558;9.704;2023-08-20T13:32:44;5.45;;;4.63;;
27161;SDS011;54464;50.558;9.704;2023-08-20T13:35:09;4.78;;;4.28;;
27161;SDS011;54464;50.558;9.704;2023-08-20T13:37:44;4.95;;;4.45;;
27161;SDS011;54464;50.558;9.704;2023-08-20T13:40:12;4.95;;;4.07;;
27161;SDS011;54464;50.558;9.704;2023-08-20T13:45:31;4.47;;;2.95;;
27161;SDS011;54464;50.558;9.704;2023-08-20T13:47:57;3.92;;;2.95;;
27161;SDS011;54464;50.558;9.704;2023-08-20T13:50:22;4.15;;;3.28;;
27161;SDS011;54464;50.558;9.704;2023-08-20T13:52:48;4.53;;;3.55;;
27161;SDS011;54464;50.558;9.704;2023-08-20T13:55:13;4.22;;;3.83;;
27161;SDS011;54464;50.558;9.704;2023-08-20T13:57:40;5.07;;;3.90;;
27161;SDS011;54464;50.558;9.704;2023-08-20T14:00:12;4.88;;;4.05;;
27161;SDS011;54464;50.558;9.704;2023-08-20T14:02:38;5.25;;;3.80;;
27161;SDS011;54464;50.558;9.704;2023-08-20T14:05:07;4.75;;;4.28;;
27161;SDS011;54464;50.558;9.704;2023-08-20T14:07:43;4.53;;;4.13;;
27161;SDS011;54464;50.558;9.704;2023-08-20T14:10:08;5.30;;;4.28;;
27161;SDS011;54464;50.558;9.704;2023-08-20T14:12:34;4.57;;;3.95;;
27161;SDS011;54464;50.558;9.704;2023-08-20T14:15:00;4.50;;;4.10;;
27161;SDS011;54464;50.558;9.704;2023-08-20T14:17:28;5.97;;;4.15;;
27161;SDS011;54464;50.558;9.704;2023-08-20T14:20:00;4.82;;;4.28;;
27161;SDS011;54464;50.558;9.704;2023-08-20T14:22:26;4.82;;;4.30;;
27161;SDS011;54464;50.558;9.704;2023-08-20T14:24:51;4.97;;;4.47;;
27161;SDS011;54464;50.558;9.704;2023-08-20T14:27:17;4.75;;;4.25;;
27161;SDS011;54464;50.558;9.704;2023-08-20T14:29:43;4.90;;;4.00;;
27161;SDS011;54464;50.558;9.704;2023-08-20T14:32:08;5.00;;;4.13;;
27161;SDS011;54464;50.558;9.704;2023-08-20T14:34:34;4.28;;;3.88;;
27161;SDS011;54464;50.558;9.704;2023-08-20T14:37:08;4.70;;;4.30;;
27161;SDS011;54464;50.558;9.704;2023-08-20T14:39:35;5.30;;;4.03;;
27161;SDS011;54464;50.558;9.704;2023-08-20T14:42:01;4.85;;;3.78;;
27161;SDS011;54464;50.558;9.704;2023-08-20T14:44:27;4.75;;;4.18;;
27161;SDS011;54464;50.558;9.704;2023-08-20T14:46:52;6.63;;;4.10;;
27161;SDS011;54464;50.558;9.704;2023-08-20T14:49:18;4.97;;;3.75;;
27161;SDS011;54464;50.558;9.704;2023-08-20T14:51:44;4.20;;;3.80;;
27161;SDS011;54464;50.558;9.704;2023-08-20T14:56:58;5.00;;;4.10;;
27161;SDS011;54464;50.558;9.704;2023-08-20T14:59:24;4.55;;;3.88;;
27161;SDS011;54464;50.558;9.704;2023-08-20T15:01:51;5.43;;;4.75;;
27161;SDS011;54464;50.558;9.704;2023-08-20T15:04:16;6.43;;;4.43;;
27161;SDS011;54464;50.558;9.704;2023-08-20T15:06:51;4.63;;;4.10;;